Time;durP1;ratioP1;P1;durP2;ratioP2;P2;SDS_P1;SDS_P2;PMS_P1;PMS_P2;Temp;Humidity;BMP_temperature;BMP_pressure;BME280_temperature;BME280_humidity;BME280_pressure;Samples;Min_cycle;Max_cycle;Signal;HPM_P1;HPM_P2
2023/06/01 00:01:37;;;;;;;5.32;2.33;;;16.00;99.90;;;;;;5070808;28;20021;-54
2023/06/01 00:04:03;;;;;;;5.60;2.58;;;15.90;99.90;;;;;;5071005;28;20051;-49
2023/06/01 00:06:30;;;;;;;5.25;2.20;;;15.80;99.90;;;;;;5070862;28;20035;-49
2023/06/01 00:08:58;;;;;;;5.10;2.30;;;15.80;99.90;;;;;;5071012;28;20463;-49
2023/06/01 00:11:27;;;;;;;5.28;2.42;;;15.80;99.90;;;;;;5070918;28;20020;-53
2023/06/01 00:13:53;;;;;;;5.13;2.60;;;15.70;99.90;;;;;;5071153;28;20036;-52
2023/06/01 00:16:19;;;;;;;4.00;1.80;;;15.70;99.90;;;;;;5071019;28;20112;-49
2023/06/01 00:18:45;;;;;;;5.97;2.55;;;15.60;99.90;;;;;;5070832;28;20034;-53
2023/06/01 00:21:11;;;;;;;8.32;2.78;;;15.50;99.90;;;;;;5070672;28;20024;-49
2023/06/01 00:23:40;;;;;;;5.75;2.38;;;15.50;99.90;;;;;;5052895;28;20029;-51
2023/06/01 00:26:09;;;;;;;;;;;15.40;99.90;;;;;;5071277;28;20400;-48
2023/06/01 00:28:36;;;;;;;5.85;2.33;;;15.40;99.90;;;;;;5070763;28;19966;-50
2023/06/01 00:31:02;;;;;;;6.90;3.15;;;15.30;99.90;;;;;;5070512;28;20024;-52
2023/06/01 00:33:28;;;;;;;6.60;2.67;;;15.20;99.90;;;;;;5070762;28;20043;-53
2023/06/01 00:35:54;;;;;;;7.07;2.97;;;15.20;99.90;;;;;;5070550;28;20032;-50
2023/06/01 00:38:20;;;;;;;7.45;2.90;;;15.10;99.90;;;;;;5070620;28;20039;-49
2023/06/01 00:40:49;;;;;;;6.75;2.75;;;15.00;99.90;;;;;;5052367;28;20619;-52
2023/06/01 00:43:16;;;;;;;7.68;3.22;;;14.90;99.90;;;;;;5070568;28;20032;-53
2023/06/01 00:45:42;;;;;;;8.85;3.40;;;14.80;99.90;;;;;;5052295;28;20051;-53
2023/06/01 00:48:07;;;;;;;6.05;3.00;;;14.70;99.90;;;;;;5052407;28;20028;-52
2023/06/01 00:50:34;;;;;;;7.05;2.88;;;14.70;99.90;;;;;;5070388;28;20033;-50
2023/06/01 00:53:02;;;;;;;6.68;2.75;;;14.60;99.90;;;;;;5070528;28;20033;-51
2023/06/01 00:55:28;;;;;;;5.30;3.13;;;14.60;99.90;;;;;;5070262;28;20032;-49
2023/06/01 00:57:55;;;;;;;7.75;3.20;;;14.50;99.90;;;;;;5052356;28;20032;-52
2023/06/01 01:00:22;;;;;;;7.53;3.85;;;14.50;99.90;;;;;;5070080;28;20024;-48
2023/06/01 01:02:48;;;;;;;8.55;3.00;;;14.40;99.90;;;;;;5072992;28;20292;-51
2023/06/01 01:05:16;;;;;;;6.00;3.22;;;14.30;99.90;;;;;;5074559;28;20445;-50
2023/06/01 01:08:46;;;;;;;8.98;3.85;;;14.30;99.90;;;;;;5074252;28;20060;-53
2023/06/01 01:11:21;;;;;;;7.68;3.40;;;14.20;99.90;;;;;;5004979;28;20069;-53
2023/06/01 01:13:49;;;;;;;7.80;3.40;;;14.20;99.90;;;;;;4995422;28;20057;-49
2023/06/01 01:16:47;;;;;;;6.50;3.45;;;14.20;99.90;;;;;;5028665;28;20067;-53
2023/06/01 01:19:48;;;;;;;6.72;3.40;;;14.10;99.90;;;;;;5055022;28;20033;-52
2023/06/01 01:22:20;;;;;;;7.05;2.97;;;14.10;99.90;;;;;;5055727;28;20102;-53
2023/06/01 01:24:58;;;;;;;8.35;4.07;;;14.00;99.90;;;;;;5055761;28;20548;-50
2023/06/01 01:27:39;;;;;;;9.25;3.90;;;13.90;99.90;;;;;;5055793;28;20457;-52
2023/06/01 01:30:07;;;;;;;6.70;3.53;;;13.90;99.90;;;;;;5055769;28;20028;-52
2023/06/01 01:32:35;;;;;;;7.25;3.65;;;13.80;99.90;;;;;;5073704;28;20031;-50
2023/06/01 01:35:02;;;;;;;7.80;4.20;;;13.80;99.90;;;;;;5073754;28;20025;-53
2023/06/01 01:37:28;;;;;;;10.18;4.25;;;13.80;99.90;;;;;;5055883;28;20032;-51
2023/06/01 01:39:55;;;;;;;10.13;4.30;;;13.80;99.90;;;;;;5073766;28;20401;-53
2023/06/01 01:42:21;;;;;;;10.65;3.95;;;13.70;99.90;;;;;;5073359;28;20039;-49
2023/06/01 01:44:47;;;;;;;7.28;3.72;;;13.70;99.90;;;;;;5055350;28;20048;-51
2023/06/01 01:47:25;;;;;;;8.63;3.70;;;13.60;99.90;;;;;;5055379;28;20033;-49
2023/06/01 01:49:57;;;;;;;8.32;3.90;;;13.60;99.90;;;;;;5073484;28;20025;-51
2023/06/01 01:52:35;;;;;;;9.93;4.05;;;13.50;99.90;;;;;;5055235;28;20050;-51
2023/06/01 01:55:02;;;;;;;9.68;3.92;;;13.40;99.90;;;;;;5055323;28;20036;-49
2023/06/01 01:57:30;;;;;;;7.47;4.00;;;13.30;99.90;;;;;;5055366;28;20504;-49
2023/06/01 01:59:56;;;;;;;10.70;4.72;;;13.30;99.90;;;;;;5055164;28;20036;-50
2023/06/01 02:02:22;;;;;;;9.63;4.55;;;13.20;99.90;;;;;;5055080;28;20025;-51
2023/06/01 02:04:48;;;;;;;9.57;4.40;;;13.20;99.90;;;;;;5054925;28;20375;-52
2023/06/01 02:07:15;;;;;;;8.88;4.20;;;13.10;99.90;;;;;;5055124;28;20454;-51
2023/06/01 02:09:41;;;;;;;11.40;4.83;;;13.00;99.90;;;;;;5055381;28;20099;-50
2023/06/01 02:12:09;;;;;;;10.83;5.07;;;12.90;99.90;;;;;;5054239;28;20024;-50
2023/06/01 02:14:35;;;;;;;13.97;4.77;;;12.80;99.90;;;;;;5072661;28;20035;-51
2023/06/01 02:17:01;;;;;;;12.83;5.03;;;12.80;99.90;;;;;;5055095;28;20025;-51
2023/06/01 02:19:29;;;;;;;11.10;5.40;;;12.70;99.90;;;;;;5054924;28;20078;-48
2023/06/01 02:21:56;;;;;;;13.47;5.33;;;12.70;99.90;;;;;;5054585;28;20519;-49
2023/06/01 02:24:21;;;;;;;9.33;4.30;;;12.60;99.90;;;;;;5054791;28;20059;-54
2023/06/01 02:26:53;;;;;;;11.10;4.70;;;12.60;99.90;;;;;;5054821;28;20123;-51
2023/06/01 02:29:21;;;;;;;9.60;4.60;;;12.50;99.90;;;;;;5072621;28;20035;-48
2023/06/01 02:31:48;;;;;;;12.80;5.50;;;12.50;99.90;;;;;;5072464;28;20028;-50
2023/06/01 02:34:14;;;;;;;12.27;5.37;;;12.40;99.90;;;;;;5072615;28;20038;-52
2023/06/01 02:36:40;;;;;;;12.23;4.27;;;12.30;99.90;;;;;;5054690;28;20115;-50
2023/06/01 02:39:06;;;;;;;11.50;5.47;;;12.30;99.90;;;;;;5073056;28;20037;-49
2023/06/01 02:41:33;;;;;;;12.33;4.73;;;12.20;99.90;;;;;;5054420;28;20033;-50
2023/06/01 02:43:59;;;;;;;13.40;4.37;;;12.10;99.90;;;;;;5054614;28;20040;-50
2023/06/01 02:46:26;;;;;;;13.23;5.10;;;12.10;99.90;;;;;;5054149;28;20066;-50
2023/06/01 02:48:52;;;;;;;12.07;5.37;;;12.00;99.90;;;;;;5054305;28;20029;-51
2023/06/01 02:51:18;;;;;;;11.40;4.90;;;12.00;99.90;;;;;;5054124;28;20032;-52
2023/06/01 02:53:47;;;;;;;9.55;4.57;;;12.00;99.90;;;;;;5054526;28;20029;-50
2023/06/01 02:56:14;;;;;;;13.83;5.23;;;11.90;99.90;;;;;;5054194;28;20029;-50
2023/06/01 02:58:41;;;;;;;11.63;5.10;;;11.80;99.90;;;;;;5072206;28;20485;-48
2023/06/01 03:01:17;;;;;;;14.67;5.70;;;11.80;99.90;;;;;;5053999;28;20669;-49
2023/06/01 03:03:44;;;;;;;14.43;5.60;;;11.70;99.90;;;;;;5054252;28;20035;-50
2023/06/01 03:06:13;;;;;;;13.23;6.03;;;11.60;99.90;;;;;;5053913;28;20063;-49
2023/06/01 03:08:57;;;;;;;15.60;6.83;;;11.60;99.90;;;;;;5072097;28;20090;-49
2023/06/01 03:11:46;;;;;;;17.63;6.55;;;11.50;99.90;;;;;;5058252;28;20668;-50
2023/06/01 03:14:12;;;;;;;18.50;7.37;;;11.50;99.90;;;;;;5053997;28;20098;-54
2023/06/01 03:16:37;;;;;;;21.10;8.17;;;11.50;99.90;;;;;;5054032;28;20054;-49
2023/06/01 03:19:29;;;;;;;24.47;8.80;;;11.50;99.90;;;;;;5068732;28;20036;-50
2023/06/01 03:21:57;;;;;;;27.75;9.77;;;11.50;99.90;;;;;;5053683;28;20051;-53
2023/06/01 03:24:26;;;;;;;23.33;9.33;;;11.50;99.90;;;;;;5053134;28;20037;-52
2023/06/01 03:26:52;;;;;;;26.77;9.77;;;11.50;99.90;;;;;;5054106;28;20489;-50
2023/06/01 03:29:18;;;;;;;24.03;10.63;;;11.50;99.90;;;;;;5053839;28;20033;-52
2023/06/01 03:31:44;;;;;;;28.83;10.53;;;11.50;99.90;;;;;;5053800;28;20056;-49
2023/06/01 03:34:09;;;;;;;25.57;9.23;;;11.50;99.90;;;;;;5053920;28;20043;-51
2023/06/01 03:36:36;;;;;;;24.00;8.90;;;11.50;99.90;;;;;;5053350;28;20031;-50
2023/06/01 03:39:07;;;;;;;26.90;10.43;;;11.50;99.90;;;;;;5053691;28;20396;-48
2023/06/01 03:41:35;;;;;;;21.93;8.43;;;11.50;99.90;;;;;;5053438;28;20500;-49
2023/06/01 03:44:02;;;;;;;23.70;8.57;;;11.50;99.90;;;;;;5053462;28;20147;-50
2023/06/01 03:46:27;;;;;;;24.20;8.90;;;11.50;99.90;;;;;;5053248;28;20548;-50
2023/06/01 03:48:53;;;;;;;20.90;9.40;;;11.40;99.90;;;;;;5071130;28;20497;-52
2023/06/01 03:51:19;;;;;;;19.80;8.40;;;11.40;99.90;;;;;;5053143;28;20032;-49
2023/06/01 03:53:44;;;;;;;19.27;8.30;;;11.40;99.90;;;;;;5053176;28;20174;-48
2023/06/01 03:56:11;;;;;;;20.67;7.80;;;11.40;99.90;;;;;;5070952;28;20025;-51
2023/06/01 03:58:40;;;;;;;;;;;11.30;99.90;;;;;;5053661;28;20028;-48
2023/06/01 04:01:06;;;;;;;23.23;8.67;;;11.30;99.90;;;;;;5052767;28;19914;-52
2023/06/01 04:03:33;;;;;;;20.00;8.80;;;11.20;99.90;;;;;;5052869;28;20044;-48
2023/06/01 04:05:59;;;;;;;22.40;9.47;;;11.20;99.90;;;;;;5052939;28;20547;-50
2023/06/01 04:08:26;;;;;;;19.17;8.80;;;11.30;99.90;;;;;;5052978;28;20280;-48
2023/06/01 04:10:52;;;;;;;20.80;8.50;;;11.30;99.90;;;;;;5052690;28;20020;-47
2023/06/01 04:13:18;;;;;;;22.00;8.67;;;11.30;99.90;;;;;;5070592;28;20115;-49
2023/06/01 04:15:46;;;;;;;22.07;10.47;;;11.30;99.90;;;;;;5052896;28;20044;-49
2023/06/01 04:18:14;;;;;;;28.80;12.65;;;11.30;99.90;;;;;;5052817;28;20480;-52
2023/06/01 04:21:00;;;;;;;34.47;14.63;;;11.30;99.90;;;;;;5069944;28;20558;-49
2023/06/01 04:23:26;;;;;;;30.60;13.33;;;11.40;99.90;;;;;;5070771;28;20033;-50
2023/06/01 04:25:52;;;;;;;28.37;12.73;;;11.30;99.90;;;;;;5052537;28;20060;-50
2023/06/01 04:28:18;;;;;;;30.80;13.70;;;11.30;99.90;;;;;;5052502;28;20037;-52
2023/06/01 04:30:47;;;;;;;33.40;13.30;;;11.40;99.90;;;;;;5052276;28;20027;-51
2023/06/01 04:33:13;;;;;;;36.28;14.15;;;11.40;99.90;;;;;;5052647;28;20266;-51
2023/06/01 04:35:39;;;;;;;35.50;14.80;;;11.40;99.90;;;;;;5052291;28;20028;-50
2023/06/01 04:38:05;;;;;;;44.90;17.63;;;11.40;99.90;;;;;;5052557;28;20036;-48
2023/06/01 04:40:31;;;;;;;42.47;18.00;;;11.30;99.90;;;;;;5052440;28;20082;-51
2023/06/01 04:42:57;;;;;;;42.60;16.60;;;11.20;99.90;;;;;;5052403;28;20051;-51
2023/06/01 04:45:25;;;;;;;39.93;16.33;;;11.20;99.90;;;;;;5052144;28;20405;-49
2023/06/01 04:47:51;;;;;;;39.03;15.10;;;11.10;99.90;;;;;;5052464;28;20438;-49
2023/06/01 04:50:28;;;;;;;36.23;14.73;;;11.20;99.90;;;;;;5052263;28;20550;-51
2023/06/01 04:52:55;;;;;;;37.70;15.43;;;11.10;99.90;;;;;;5052420;28;20041;-50
2023/06/01 04:55:20;;;;;;;40.73;15.87;;;11.10;99.90;;;;;;5052260;28;20025;-50
2023/06/01 04:57:46;;;;;;;40.47;17.13;;;11.20;99.90;;;;;;5070258;28;20408;-50
2023/06/01 05:00:17;;;;;;;43.33;16.70;;;11.20;99.90;;;;;;5052209;28;20029;-49
2023/06/01 05:02:46;;;;;;;45.23;17.77;;;11.30;99.90;;;;;;5052332;28;20043;-53
2023/06/01 05:05:13;;;;;;;47.65;17.30;;;11.30;99.90;;;;;;5052160;28;20033;-51
2023/06/01 05:07:41;;;;;;;45.60;17.37;;;11.20;99.90;;;;;;5052201;28;20056;-49
2023/06/01 05:10:09;;;;;;;46.33;17.47;;;11.30;99.90;;;;;;5070073;28;20134;-50
2023/06/01 05:12:45;;;;;;;38.47;16.50;;;11.30;99.90;;;;;;5052228;28;20393;-48
2023/06/01 05:15:13;;;;;;;42.30;17.07;;;11.30;99.90;;;;;;5052048;28;20112;-49
2023/06/01 05:17:39;;;;;;;44.53;17.27;;;11.20;99.90;;;;;;5052199;28;20028;-49
2023/06/01 05:20:17;;;;;;;43.03;16.17;;;11.20;99.90;;;;;;5052057;28;20063;-51
2023/06/01 05:22:48;;;;;;;41.03;15.63;;;11.20;99.90;;;;;;5052014;28;20112;-51
2023/06/01 05:25:14;;;;;;;48.03;18.80;;;11.10;99.90;;;;;;5069888;28;20123;-49
2023/06/01 05:27:39;;;;;;;45.87;17.87;;;11.10;99.90;;;;;;5052338;28;20062;-51
2023/06/01 05:30:06;;;;;;;49.33;18.77;;;11.10;99.90;;;;;;5051979;28;20024;-48
2023/06/01 05:32:32;;;;;;;44.30;16.53;;;11.10;99.90;;;;;;5051935;28;20078;-50
2023/06/01 05:35:08;;;;;;;46.83;17.77;;;11.10;99.90;;;;;;5052058;28;20111;-49
2023/06/01 05:37:35;;;;;;;42.17;17.40;;;11.10;99.90;;;;;;5052039;28;20025;-53
2023/06/01 05:40:02;;;;;;;44.73;18.73;;;11.10;99.90;;;;;;5051812;28;20033;-49
2023/06/01 05:42:28;;;;;;;48.27;18.30;;;11.00;99.90;;;;;;5051857;28;20416;-53
2023/06/01 05:44:54;;;;;;;43.33;17.00;;;11.10;99.90;;;;;;5069855;28;20029;-53
2023/06/01 05:47:20;;;;;;;43.70;18.60;;;11.10;99.90;;;;;;5052113;28;20032;-50
2023/06/01 05:49:46;;;;;;;42.33;17.57;;;11.10;99.90;;;;;;5055589;28;20028;-52
2023/06/01 05:52:13;;;;;;;44.67;18.37;;;11.20;99.90;;;;;;5055151;28;20098;-47
2023/06/01 05:54:39;;;;;;;44.07;17.50;;;11.20;99.90;;;;;;5055501;28;20035;-51
2023/06/01 05:57:07;;;;;;;43.03;17.67;;;11.30;99.90;;;;;;5055665;28;20035;-48
2023/06/01 05:59:32;;;;;;;48.57;18.83;;;11.40;99.90;;;;;;5055482;28;20032;-52
2023/06/01 06:01:59;;;;;;;49.33;18.13;;;11.30;99.90;;;;;;5055130;28;20085;-50
2023/06/01 06:04:25;;;;;;;43.07;17.23;;;11.30;99.90;;;;;;5073135;28;20044;-52
2023/06/01 06:06:51;;;;;;;43.07;17.67;;;11.40;99.90;;;;;;5073503;28;20024;-49
2023/06/01 06:09:16;;;;;;;42.80;16.83;;;11.50;99.90;;;;;;5073574;28;20504;-52
2023/06/01 06:11:43;;;;;;;41.17;16.47;;;11.50;99.90;;;;;;5073179;28;20028;-49
2023/06/01 06:14:11;;;;;;;41.23;16.40;;;11.50;99.90;;;;;;5073384;28;20062;-48
2023/06/01 06:16:37;;;;;;;42.90;17.87;;;11.50;99.90;;;;;;5073219;28;20106;-49
2023/06/01 06:19:02;;;;;;;44.77;19.03;;;11.60;99.90;;;;;;5073133;28;20032;-52
2023/06/01 06:21:28;;;;;;;41.50;17.20;;;11.60;99.90;;;;;;5072702;28;20038;-49
2023/06/01 06:23:58;;;;;;;48.57;18.53;;;11.70;99.90;;;;;;5073172;28;20493;-53
2023/06/01 06:26:26;;;;;;;42.73;18.77;;;11.70;99.90;;;;;;5072789;28;20094;-49
2023/06/01 06:28:52;;;;;;;41.80;18.10;;;11.80;99.90;;;;;;5072904;28;20028;-49
2023/06/01 06:31:18;;;;;;;39.60;15.73;;;11.80;99.90;;;;;;5072602;28;20079;-49
2023/06/01 06:33:43;;;;;;;36.57;16.57;;;11.80;99.90;;;;;;5072749;28;20056;-51
2023/06/01 06:36:09;;;;;;;40.20;16.63;;;11.80;99.90;;;;;;5072571;28;20412;-51
2023/06/01 06:38:35;;;;;;;39.97;17.47;;;11.80;99.90;;;;;;5072678;28;20035;-52
2023/06/01 06:41:00;;;;;;;40.13;16.53;;;11.90;99.90;;;;;;5072417;28;20104;-50
2023/06/01 06:43:26;;;;;;;43.50;17.90;;;12.00;99.90;;;;;;5072566;28;20028;-49
2023/06/01 06:45:52;;;;;;;42.73;18.00;;;12.10;99.90;;;;;;5072323;28;20363;-49
2023/06/01 06:48:17;;;;;;;39.27;16.97;;;12.20;99.90;;;;;;5072301;28;20060;-51
2023/06/01 06:50:44;;;;;;;37.03;16.07;;;12.40;99.90;;;;;;5072120;28;20024;-51
2023/06/01 06:53:11;;;;;;;37.80;15.73;;;12.50;99.90;;;;;;5072171;28;20021;-50
2023/06/01 06:55:37;;;;;;;36.67;15.63;;;12.90;99.90;;;;;;5072147;28;20473;-48
2023/06/01 06:58:02;;;;;;;34.73;16.03;;;13.00;99.90;;;;;;5072341;28;20117;-52
2023/06/01 07:00:28;;;;;;;32.50;14.75;;;13.10;99.90;;;;;;5071891;28;20142;-50
2023/06/01 07:02:55;;;;;;;33.97;14.95;;;13.20;99.90;;;;;;5071922;28;20060;-49
2023/06/01 07:05:20;;;;;;;33.10;15.50;;;13.40;99.90;;;;;;5072114;28;20028;-54
2023/06/01 07:07:46;;;;;;;35.20;16.55;;;13.40;99.90;;;;;;5071878;28;20496;-51
2023/06/01 07:10:12;;;;;;;34.67;16.85;;;13.50;99.90;;;;;;5071913;28;20143;-49
2023/06/01 07:12:38;;;;;;;32.00;14.73;;;13.60;99.90;;;;;;5071760;28;20032;-49
2023/06/01 07:15:05;;;;;;;31.20;14.25;;;13.70;99.90;;;;;;5071809;28;20040;-50
2023/06/01 07:17:30;;;;;;;27.70;13.73;;;13.80;99.90;;;;;;5072076;28;20028;-51
2023/06/01 07:19:56;;;;;;;26.88;12.95;;;13.90;99.90;;;;;;5071911;28;20392;-50
2023/06/01 07:22:22;;;;;;;26.52;12.35;;;14.10;99.90;;;;;;5071276;28;20039;-48
2023/06/01 07:24:48;;;;;;;22.55;10.60;;;14.30;99.90;;;;;;5071663;28;20029;-50
2023/06/01 07:27:14;;;;;;;22.92;10.73;;;14.50;99.90;;;;;;5071844;28;20111;-48
2023/06/01 07:29:41;;;;;;;22.25;10.55;;;14.50;99.90;;;;;;5071568;28;20028;-49
2023/06/01 07:32:06;;;;;;;20.90;9.85;;;14.60;99.90;;;;;;5071605;28;20032;-49
2023/06/01 07:34:35;;;;;;;19.52;9.68;;;14.60;99.90;;;;;;5071319;28;20396;-49
2023/06/01 07:37:01;;;;;;;22.50;10.57;;;14.50;99.90;;;;;;5071504;28;20025;-50
2023/06/01 07:39:27;;;;;;;24.00;10.65;;;14.60;99.90;;;;;;5071427;28;20052;-49
2023/06/01 07:41:53;;;;;;;17.52;8.13;;;14.70;99.90;;;;;;5071079;28;20083;-48
2023/06/01 07:44:20;;;;;;;16.80;7.90;;;14.80;99.90;;;;;;5071075;28;20063;-50
2023/06/01 07:46:46;;;;;;;17.38;8.35;;;14.80;99.90;;;;;;5071207;28;20071;-51
2023/06/01 07:49:13;;;;;;;16.42;7.20;;;15.00;99.90;;;;;;5071136;28;20024;-49
2023/06/01 07:51:40;;;;;;;15.68;7.78;;;15.10;99.90;;;;;;5070726;28;20016;-50
2023/06/01 07:54:06;;;;;;;21.35;8.82;;;15.10;99.90;;;;;;5071110;28;20024;-49
2023/06/01 07:56:32;;;;;;;21.17;9.27;;;15.20;99.90;;;;;;5070928;28;20060;-53
2023/06/01 07:58:58;;;;;;;17.23;8.30;;;15.20;99.90;;;;;;5070970;28;20060;-51
2023/06/01 08:01:23;;;;;;;16.20;7.88;;;15.20;99.90;;;;;;5070717;28;20025;-49
2023/06/01 08:03:51;;;;;;;14.13;7.20;;;15.30;99.90;;;;;;5070948;28;20032;-50
2023/06/01 08:06:16;;;;;;;14.93;7.70;;;15.30;99.90;;;;;;5070871;28;20024;-49
2023/06/01 08:08:43;;;;;;;13.88;7.38;;;15.50;99.90;;;;;;5070867;28;20108;-48
2023/06/01 08:11:09;;;;;;;14.13;7.22;;;15.60;99.90;;;;;;5070319;28;20028;-49
2023/06/01 08:13:36;;;;;;;15.55;8.20;;;15.60;99.90;;;;;;5070638;28;20147;-48
2023/06/01 08:16:03;;;;;;;16.52;8.32;;;15.50;99.90;;;;;;5070412;28;20029;-47
2023/06/01 08:18:30;;;;;;;15.80;7.72;;;15.40;99.90;;;;;;5070817;28;20036;-48
2023/06/01 08:20:56;;;;;;;13.98;7.47;;;15.40;99.90;;;;;;5070518;28;20033;-50
2023/06/01 08:23:24;;;;;;;15.23;6.95;;;15.30;99.90;;;;;;5070574;28;20036;-49
2023/06/01 08:25:50;;;;;;;14.63;7.35;;;15.40;99.90;;;;;;5070659;28;20035;-50
2023/06/01 08:28:16;;;;;;;15.85;7.35;;;15.40;99.90;;;;;;5070497;28;20041;-47
2023/06/01 08:30:41;;;;;;;12.27;6.53;;;15.50;99.90;;;;;;5070349;28;20035;-47
2023/06/01 08:33:07;;;;;;;11.68;6.57;;;15.60;99.90;;;;;;5070724;28;20032;-48
2023/06/01 08:35:34;;;;;;;11.30;5.60;;;15.60;99.90;;;;;;5070632;28;20016;-53
2023/06/01 08:38:01;;;;;;;14.02;6.07;;;15.70;99.90;;;;;;5070611;28;20036;-49
2023/06/01 08:40:27;;;;;;;14.18;6.03;;;15.70;99.90;;;;;;5070311;28;20470;-51
2023/06/01 08:43:09;;;;;;;12.30;6.43;;;15.80;99.90;;;;;;5070461;28;20037;-51
2023/06/01 08:45:37;;;;;;;13.27;6.57;;;15.90;99.90;;;;;;5070314;28;20025;-53
2023/06/01 08:48:08;;;;;;;14.65;6.38;;;15.70;99.90;;;;;;5070855;28;20029;-47
2023/06/01 08:50:34;;;;;;;14.48;6.65;;;15.70;99.90;;;;;;5070140;28;20033;-50
2023/06/01 08:53:03;;;;;;;14.50;5.72;;;15.70;99.90;;;;;;5070430;28;20025;-51
2023/06/01 08:55:29;;;;;;;;;;;15.80;99.90;;;;;;5070734;28;20040;-51
2023/06/01 08:57:55;;;;;;;10.73;5.25;;;15.90;99.90;;;;;;5070706;28;19912;-47
2023/06/01 09:00:21;;;;;;;12.55;6.07;;;15.90;99.90;;;;;;5070239;28;20028;-51
2023/06/01 09:02:48;;;;;;;17.50;7.40;;;15.90;99.90;;;;;;5070661;28;20401;-52
2023/06/01 09:05:14;;;;;;;11.57;5.70;;;15.90;99.90;;;;;;5070351;28;20039;-51
2023/06/01 09:07:40;;;;;;;19.58;8.15;;;16.00;99.90;;;;;;5070175;28;20477;-50
2023/06/01 09:10:06;;;;;;;12.60;5.63;;;16.10;99.90;;;;;;5070378;28;20037;-50
2023/06/01 09:12:33;;;;;;;8.95;5.10;;;16.10;99.90;;;;;;5070019;28;20518;-53
2023/06/01 09:15:09;;;;;;;11.70;6.05;;;16.30;99.90;;;;;;5069932;28;20393;-53
2023/06/01 09:17:35;;;;;;;13.43;6.05;;;16.20;99.90;;;;;;5069392;28;20036;-51
2023/06/01 09:20:02;;;;;;;10.70;5.55;;;16.20;99.90;;;;;;5069910;28;20024;-50
2023/06/01 09:22:45;;;;;;;9.43;4.85;;;16.30;99.90;;;;;;5070563;28;20035;-49
2023/06/01 09:25:15;;;;;;;13.30;5.90;;;16.50;99.90;;;;;;5074279;28;20055;-48
2023/06/01 09:27:49;;;;;;;9.07;5.00;;;16.60;99.90;;;;;;5073869;28;20035;-52
2023/06/01 09:30:17;;;;;;;10.05;5.60;;;16.80;99.90;;;;;;5073674;28;20122;-48
2023/06/01 09:32:44;;;;;;;12.05;6.00;;;16.90;99.90;;;;;;5073577;28;20098;-53
2023/06/01 09:35:10;;;;;;;13.13;5.20;;;16.90;99.90;;;;;;5073625;28;20024;-49
2023/06/01 09:37:37;;;;;;;9.75;5.25;;;17.00;99.90;;;;;;5073846;28;20472;-52
2023/06/01 09:40:17;;;;;;;11.57;6.05;;;17.10;99.90;;;;;;5073557;28;20384;-49
2023/06/01 09:42:43;;;;;;;11.48;5.45;;;17.10;99.90;;;;;;5055956;28;20036;-50
2023/06/01 09:45:22;;;;;;;10.75;5.00;;;17.20;99.90;;;;;;5055563;28;20328;-52
2023/06/01 09:47:48;;;;;;;9.05;4.97;;;17.30;99.90;;;;;;5073700;28;20075;-49
2023/06/01 09:50:37;;;;;;;13.88;4.90;;;17.30;99.90;;;;;;5073484;28;20025;-53
2023/06/01 09:53:04;;;;;;;10.60;5.43;;;17.50;99.90;;;;;;5073918;28;20581;-50
2023/06/01 09:55:30;;;;;;;12.90;5.95;;;17.30;99.90;;;;;;5073303;28;20050;-51
2023/06/01 09:58:20;;;;;;;11.18;5.45;;;17.40;99.90;;;;;;5073462;28;20028;-53
2023/06/01 10:00:47;;;;;;;10.15;4.93;;;17.40;99.10;;;;;;5073193;28;20043;-49
2023/06/01 10:03:18;;;;;;;10.32;4.97;;;17.50;99.60;;;;;;5073437;28;20040;-50
2023/06/01 10:05:45;;;;;;;10.05;4.80;;;17.60;99.30;;;;;;5072906;28;20111;-51
2023/06/01 10:08:12;;;;;;;9.52;4.70;;;17.60;99.90;;;;;;5073036;28;20024;-52
2023/06/01 10:10:42;;;;;;;11.82;4.80;;;17.80;99.90;;;;;;5073093;28;20024;-52
2023/06/01 10:13:08;;;;;;;11.38;4.85;;;17.70;98.90;;;;;;5072952;28;20078;-53
2023/06/01 10:15:35;;;;;;;9.32;4.80;;;17.80;98.70;;;;;;5072857;28;20040;-52
2023/06/01 10:18:03;;;;;;;9.25;4.60;;;17.70;99.20;;;;;;5073144;28;20099;-53
2023/06/01 10:20:33;;;;;;;10.50;4.75;;;17.80;99.90;;;;;;5072785;28;20051;-49
2023/06/01 10:23:00;;;;;;;10.88;5.70;;;17.80;99.50;;;;;;5072792;28;20037;-52
2023/06/01 10:25:49;;;;;;;10.18;4.60;;;17.90;99.50;;;;;;5072958;28;20107;-48
2023/06/01 10:28:17;;;;;;;13.10;4.88;;;18.00;98.90;;;;;;5072616;28;20621;-50
2023/06/01 10:30:42;;;;;;;7.72;4.90;;;18.10;98.60;;;;;;5072485;28;20032;-50
2023/06/01 10:33:08;;;;;;;8.70;4.57;;;18.10;99.70;;;;;;5072226;28;20028;-52
2023/06/01 10:35:43;;;;;;;11.45;6.00;;;18.20;98.50;;;;;;5072499;28;20519;-50
2023/06/01 10:38:16;;;;;;;10.73;4.80;;;18.20;99.30;;;;;;5072550;28;20060;-48
2023/06/01 10:40:46;;;;;;;9.88;4.90;;;18.30;98.90;;;;;;5072338;28;20123;-50
2023/06/01 10:43:37;;;;;;;14.60;5.00;;;18.30;98.30;;;;;;5072688;28;20621;-54
2023/06/01 10:46:23;;;;;;;8.80;4.38;;;18.40;98.10;;;;;;5072327;28;20029;-50
2023/06/01 10:48:55;;;;;;;9.45;4.40;;;18.50;99.30;;;;;;5072405;28;20033;-53
2023/06/01 10:51:25;;;;;;;9.77;4.38;;;18.50;98.40;;;;;;5072215;28;20033;-54
2023/06/01 10:53:52;;;;;;;10.55;4.35;;;18.70;98.40;;;;;;5072413;28;20028;-53
2023/06/01 10:56:28;;;;;;;9.40;5.03;;;18.80;98.60;;;;;;5072240;28;20074;-51
2023/06/01 10:59:09;;;;;;;7.72;4.10;;;18.80;97.70;;;;;;5072559;28;20055;-54
2023/06/01 11:01:39;;;;;;;9.23;4.30;;;18.70;97.50;;;;;;5072045;28;20025;-50
2023/06/01 11:04:05;;;;;;;10.52;5.20;;;18.80;97.40;;;;;;5072001;28;20029;-53
2023/06/01 11:06:33;;;;;;;10.23;4.82;;;18.80;98.10;;;;;;5071854;28;20439;-53
2023/06/01 11:09:06;;;;;;;7.85;4.60;;;18.90;98.70;;;;;;5072172;28;20544;-53
2023/06/01 11:11:55;;;;;;;11.15;4.85;;;18.90;97.40;;;;;;5071875;28;20021;-52
2023/06/01 11:14:23;;;;;;;;;;;18.80;96.10;;;;;;5054453;28;20091;-53
2023/06/01 11:16:52;;;;;;;9.77;4.28;;;18.70;97.50;;;;;;5072020;28;20027;-54
2023/06/01 11:19:20;;;;;;;8.05;4.05;;;18.90;96.70;;;;;;5071859;28;20032;-50
2023/06/01 11:21:46;;;;;;;9.55;4.13;;;18.90;96.40;;;;;;5071542;28;20035;-51
2023/06/01 11:24:14;;;;;;;8.02;3.55;;;18.90;95.30;;;;;;5072153;28;20136;-52
2023/06/01 11:26:48;;;;;;;9.03;4.20;;;19.00;96.20;;;;;;5071593;28;20036;-50
2023/06/01 11:29:19;;;;;;;8.82;4.15;;;19.00;95.80;;;;;;5053680;28;20468;-49
2023/06/01 11:31:46;;;;;;;7.60;4.20;;;19.10;95.80;;;;;;5071157;28;20021;-52
2023/06/01 11:34:13;;;;;;;10.50;4.75;;;19.10;96.10;;;;;;5071734;28;20120;-54
2023/06/01 11:36:43;;;;;;;7.65;3.60;;;19.20;96.10;;;;;;5071584;28;20534;-54
2023/06/01 11:39:22;;;;;;;9.88;4.47;;;19.30;96.60;;;;;;5071577;28;20078;-49
2023/06/01 11:41:49;;;;;;;7.60;3.97;;;19.30;96.20;;;;;;5071213;28;20048;-49
2023/06/01 11:44:15;;;;;;;10.88;4.32;;;19.40;95.40;;;;;;5071486;28;20036;-52
2023/06/01 11:46:56;;;;;;;7.78;3.78;;;19.40;95.40;;;;;;5070723;28;20066;-50
2023/06/01 11:49:22;;;;;;;10.27;4.13;;;19.40;96.00;;;;;;5071407;28;20070;-51
2023/06/01 11:51:51;;;;;;;8.10;3.50;;;19.40;95.50;;;;;;5071056;28;20033;-50
2023/06/01 11:54:21;;;;;;;8.52;4.22;;;19.40;95.30;;;;;;5070967;28;20070;-50
2023/06/01 11:56:46;;;;;;;9.45;5.20;;;19.50;95.60;;;;;;5071132;28;20495;-52
2023/06/01 11:59:13;;;;;;;9.48;4.78;;;19.50;95.20;;;;;;5071243;28;20028;-52
2023/06/01 12:01:44;;;;;;;10.32;4.95;;;19.40;95.40;;;;;;5070867;28;20032;-51
2023/06/01 12:04:18;;;;;;;10.75;4.72;;;19.30;95.40;;;;;;5053465;28;20399;-53
2023/06/01 12:06:44;;;;;;;9.45;4.85;;;19.40;96.40;;;;;;5071145;28;20078;-50
2023/06/01 12:09:12;;;;;;;11.75;5.50;;;19.50;95.60;;;;;;5070890;28;20032;-51
2023/06/01 12:11:38;;;;;;;10.90;5.18;;;19.50;96.00;;;;;;5070650;28;20032;-53
2023/06/01 12:14:05;;;;;;;8.18;4.65;;;19.70;96.60;;;;;;5070859;28;20028;-52
2023/06/01 12:16:58;;;;;;;8.82;4.40;;;19.70;95.90;;;;;;5070680;28;20028;-50
2023/06/01 12:19:25;;;;;;;8.80;4.82;;;19.80;96.60;;;;;;5070822;28;20042;-52
2023/06/01 12:21:53;;;;;;;10.45;5.45;;;19.90;95.90;;;;;;5070450;28;20106;-51
2023/06/01 12:24:29;;;;;;;11.35;5.40;;;19.90;95.70;;;;;;5070530;28;20039;-52
2023/06/01 12:26:57;;;;;;;9.30;5.00;;;19.90;95.70;;;;;;5070757;28;20503;-51
2023/06/01 12:29:41;;;;;;;7.97;4.43;;;19.90;95.90;;;;;;5070682;28;20029;-52
2023/06/01 12:32:07;;;;;;;9.77;4.28;;;19.80;96.20;;;;;;5070198;28;20081;-50
2023/06/01 12:34:33;;;;;;;12.05;5.03;;;19.80;96.20;;;;;;5070343;28;20056;-49
2023/06/01 12:36:59;;;;;;;8.40;4.03;;;19.80;95.50;;;;;;5070668;28;20025;-53
2023/06/01 12:39:37;;;;;;;12.60;5.03;;;19.90;96.10;;;;;;5070839;28;20077;-52
2023/06/01 12:42:06;;;;;;;8.23;4.55;;;20.00;95.30;;;;;;5070333;28;20037;-52
2023/06/01 12:44:33;;;;;;;9.50;5.18;;;20.00;95.50;;;;;;5070862;28;20477;-51
2023/06/01 12:47:00;;;;;;;8.00;3.95;;;20.10;95.40;;;;;;5070733;28;20032;-52